createdAt,value
2022-08-22T00:02:18.763Z,101692.22
2022-08-22T00:02:41.623Z,101679.88
2022-08-22T00:03:15.720Z,101693.81
2022-08-22T00:05:10.635Z,101691.69
2022-08-22T00:07:55.361Z,101693.94
2022-08-22T00:10:27.936Z,101696.34
2022-08-22T00:13:14.604Z,101699.09
2022-08-22T00:15:47.189Z,101697.16
2022-08-22T00:18:17.807Z,101700.69
2022-08-22T00:21:04.935Z,101703.75
2022-08-22T00:23:58.382Z,101700.28
2022-08-22T00:26:44.650Z,101699.44
2022-08-22T00:29:15.977Z,101698.16
2022-08-22T00:31:52.686Z,101698.53
2022-08-22T00:34:34.490Z,101704.75
2022-08-22T00:37:15.313Z,101703.94
2022-08-22T00:39:49.774Z,101704.72
2022-08-22T00:42:32.167Z,101707.84
2022-08-22T00:45:08.410Z,101706.25
2022-08-22T00:47:36.170Z,101704.31
2022-08-22T00:50:29.921Z,101707.84
2022-08-22T00:53:08.566Z,101713.72
2022-08-22T00:55:46.757Z,101710.19
2022-08-22T00:58:33.498Z,101713.22
2022-08-22T01:01:06.775Z,101707.38
2022-08-22T01:03:39.578Z,101707.00
2022-08-22T01:06:12.069Z,101712.19
2022-08-22T01:09:03.144Z,101709.44
2022-08-22T01:12:08.670Z,101713.72
2022-08-22T01:14:55.803Z,101715.22
2022-08-22T01:17:49.686Z,101714.78
2022-08-22T01:21:05.922Z,101707.72
2022-08-22T01:23:54.014Z,101713.56
2022-08-22T01:26:47.662Z,101714.78
2022-08-22T01:29:51.032Z,101709.63
2022-08-22T01:32:57.257Z,101717.81
2022-08-22T01:35:45.424Z,101715.41
2022-08-22T01:38:25.486Z,101707.13
2022-08-22T01:41:36.690Z,101714.22
2022-08-22T01:44:17.994Z,101710.25
2022-08-22T01:46:51.577Z,101704.69
2022-08-22T01:49:24.784Z,101713.31
2022-08-22T01:52:01.790Z,101716.06
2022-08-22T01:54:37.229Z,101705.03
2022-08-22T01:57:08.219Z,101707.34
2022-08-22T01:59:42.384Z,101708.94
2022-08-22T02:02:15.303Z,101704.13
2022-08-22T02:04:55.374Z,101706.94
2022-08-22T02:07:47.567Z,101709.56
2022-08-22T02:10:44.945Z,101699.38
2022-08-22T02:13:14.423Z,101699.44
2022-08-22T02:15:40.998Z,101705.66
2022-08-22T02:18:12.297Z,101694.25
2022-08-22T02:21:17.746Z,101697.00
2022-08-22T02:23:55.947Z,101691.94
2022-08-22T02:26:39.162Z,101702.19
2022-08-22T02:29:17.169Z,101705.72
2022-08-22T02:32:33.249Z,101698.19
2022-08-22T02:35:08.839Z,101700.91
2022-08-22T02:37:40.634Z,101699.00
2022-08-22T02:40:35.423Z,101691.50
2022-08-22T02:43:15.290Z,101693.94
2022-08-22T02:46:03.910Z,101689.69
2022-08-22T02:49:10.991Z,101695.09
2022-08-22T02:51:43.401Z,101692.72
2022-08-22T02:54:28.671Z,101696.19
2022-08-22T02:57:05.887Z,101689.84
2022-08-22T02:59:37.861Z,101694.13
2022-08-22T03:02:45.713Z,101685.13
2022-08-22T03:05:27.516Z,101685.13
2022-08-22T03:08:13.134Z,101685.50
2022-08-22T03:10:45.748Z,101677.25
2022-08-22T03:13:24.062Z,101674.44
2022-08-22T03:16:03.805Z,101680.31
2022-08-22T03:18:33.404Z,101680.25
2022-08-22T03:21:30.754Z,101677.53
2022-08-22T03:24:10.593Z,101675.22
2022-08-22T03:26:57.749Z,101671.69
2022-08-22T03:29:38.474Z,101672.88
2022-08-22T03:32:19.298Z,101671.56
2022-08-22T03:35:05.262Z,101664.88
2022-08-22T03:37:31.670Z,101667.34
2022-08-22T03:40:03.569Z,101670.88
2022-08-22T03:42:51.918Z,101666.88
2022-08-22T03:45:55.988Z,101660.47
2022-08-22T03:48:44.445Z,101664.00
2022-08-22T03:51:20.049Z,101662.13
2022-08-22T03:54:03.201Z,101663.28
2022-08-22T03:56:54.172Z,101663.97
2022-08-22T03:59:37.222Z,101664.38
2022-08-22T04:02:42.835Z,101669.09
2022-08-22T04:05:31.927Z,101676.25
2022-08-22T04:08:27.805Z,101668.03
2022-08-22T04:11:12.226Z,101668.41
2022-08-22T04:14:16.481Z,101660.56
2022-08-22T04:16:51.373Z,101657.38
2022-08-22T04:19:38.649Z,101657.63
2022-08-22T04:22:48.231Z,101653.28
2022-08-22T04:25:18.117Z,101656.44
2022-08-22T04:27:55.808Z,101668.06
2022-08-22T04:31:03.662Z,101666.75
2022-08-22T04:33:44.905Z,101675.97
2022-08-22T04:36:30.894Z,101678.00
2022-08-22T04:39:05.839Z,101673.38
2022-08-22T04:42:29.113Z,101670.63
2022-08-22T04:45:06.904Z,101671.06
2022-08-22T04:47:54.096Z,101673.41
2022-08-22T04:51:10.583Z,101675.25
2022-08-22T04:53:56.378Z,101675.25
2022-08-22T04:56:50.449Z,101678.84
2022-08-22T04:59:18.722Z,101679.63
2022-08-22T05:01:47.317Z,101685.44
2022-08-22T05:04:20.609Z,101690.50
2022-08-22T05:06:55.070Z,101690.50
2022-08-22T05:09:34.329Z,101691.69
2022-08-22T05:12:09.104Z,101685.91
2022-08-22T05:14:48.869Z,101683.91
2022-08-22T05:17:21.214Z,101684.72
2022-08-22T05:19:51.715Z,101687.50
2022-08-22T05:22:39.595Z,101679.31
2022-08-22T05:25:11.671Z,101682.78
2022-08-22T05:27:56.392Z,101683.16
2022-08-22T05:30:28.373Z,101687.91
2022-08-22T05:33:14.305Z,101697.72
2022-08-22T05:35:53.403Z,101701.34
2022-08-22T05:38:32.049Z,101708.38
2022-08-22T05:41:08.689Z,101715.84
2022-08-22T05:43:39.434Z,101708.53
2022-08-22T05:46:09.857Z,101714.13
2022-08-22T05:48:43.720Z,101714.94
2022-08-22T05:51:21.453Z,101709.41
2022-08-22T05:54:33.775Z,101715.78
2022-08-22T05:57:30.191Z,101711.13
2022-08-22T06:00:25.461Z,101708.75
2022-08-22T06:02:51.884Z,101716.34
2022-08-22T06:05:26.773Z,101716.44
2022-08-22T06:08:16.498Z,101717.63
2022-08-22T06:10:48.165Z,101713.78
2022-08-22T06:13:24.699Z,101713.81
2022-08-22T06:16:00.142Z,101728.00
2022-08-22T06:18:29.045Z,101726.09
2022-08-22T06:21:09.997Z,101727.25
2022-08-22T06:23:43.433Z,101728.84
2022-08-22T06:26:20.116Z,101735.91
2022-08-22T06:28:55.010Z,101736.00
2022-08-22T06:31:35.906Z,101738.38
2022-08-22T06:34:11.901Z,101734.16
2022-08-22T06:36:42.749Z,101738.13
2022-08-22T06:39:14.774Z,101741.66
2022-08-22T06:42:02.354Z,101739.75
2022-08-22T06:44:37.647Z,101740.22
2022-08-22T06:47:08.408Z,101739.81
2022-08-22T06:49:36.959Z,101739.47
2022-08-22T06:52:07.711Z,101731.69
2022-08-22T06:54:38.965Z,101738.34
2022-08-22T06:57:12.138Z,101749.84
2022-08-22T06:59:39.378Z,101746.19
2022-08-22T07:02:25.172Z,101751.97
2022-08-22T07:04:52.211Z,101750.06
2022-08-22T07:07:20.321Z,101748.06
2022-08-22T07:09:51.326Z,101751.72
2022-08-22T07:12:21.611Z,101746.00
2022-08-22T07:14:52.283Z,101748.94
2022-08-22T07:17:25.778Z,101735.34
2022-08-22T07:20:15.387Z,101747.28
2022-08-22T07:22:54.176Z,101737.97
2022-08-22T07:25:21.726Z,101736.47
2022-08-22T07:28:00.527Z,101734.63
2022-08-22T07:30:50.177Z,101728.84
2022-08-22T07:33:34.779Z,101725.78
2022-08-22T07:36:17.696Z,101728.59
2022-08-22T07:38:51.065Z,101722.72
2022-08-22T07:41:24.416Z,101725.50
2022-08-22T07:44:13.502Z,101716.91
2022-08-22T07:47:00.644Z,101714.56
2022-08-22T07:49:34.075Z,101720.50
2022-08-22T07:52:08.268Z,101716.53
2022-08-22T07:55:00.104Z,101714.16
2022-08-22T07:57:30.282Z,101708.66
2022-08-22T08:00:00.001Z,101705.09
2022-08-22T08:02:28.183Z,101700.75
2022-08-22T08:04:57.982Z,101702.72
2022-08-22T08:07:29.005Z,101698.34
2022-08-22T08:10:02.613Z,101697.13
2022-08-22T08:12:40.026Z,101696.66
2022-08-22T08:15:15.729Z,101695.81
2022-08-22T08:17:44.210Z,101688.63
2022-08-22T08:20:14.697Z,101690.91
2022-08-22T08:22:44.921Z,101696.41
2022-08-22T08:25:25.116Z,101693.97
2022-08-22T08:28:11.293Z,101682.81
2022-08-22T08:30:46.685Z,101683.97
2022-08-22T08:33:26.295Z,101678.81
2022-08-22T08:36:25.040Z,101673.59
2022-08-22T08:39:14.225Z,101682.19
2022-08-22T08:41:53.264Z,101678.84
2022-08-22T08:44:41.342Z,101686.19
2022-08-22T08:47:34.504Z,101683.03
2022-08-22T08:50:21.206Z,101680.03
2022-08-22T08:52:53.709Z,101678.63
2022-08-22T08:55:46.425Z,101669.41
2022-08-22T08:58:43.264Z,101674.53
2022-08-22T09:01:19.704Z,101676.63
2022-08-22T09:03:51.417Z,101679.25
2022-08-22T09:06:36.207Z,101676.41
2022-08-22T09:09:17.932Z,101676.09
2022-08-22T09:12:08.671Z,101673.47
2022-08-22T09:14:47.371Z,101667.19
2022-08-22T09:18:08.536Z,101658.47
2022-08-22T09:21:29.730Z,101665.44
2022-08-22T09:24:08.159Z,101663.50
2022-08-22T09:26:48.879Z,101663.09
2022-08-22T09:29:32.709Z,101671.06
2022-08-22T09:32:16.163Z,101658.00
2022-08-22T09:34:59.638Z,101666.22
2022-08-22T09:37:29.167Z,101661.97
2022-08-22T09:40:03.889Z,101664.81
2022-08-22T09:42:57.148Z,101657.28
2022-08-22T09:45:34.400Z,101661.19
2022-08-22T09:48:17.258Z,101661.34
2022-08-22T09:51:08.332Z,101653.03
2022-08-22T09:54:08.018Z,101644.00
2022-08-22T09:56:43.668Z,101646.53
2022-08-22T09:59:17.003Z,101643.03
2022-08-22T10:01:55.790Z,101648.03
2022-08-22T10:04:43.972Z,101634.66
2022-08-22T10:07:32.370Z,101641.63
2022-08-22T10:10:01.808Z,101645.38
2022-08-22T10:12:36.046Z,101632.34
2022-08-22T10:15:06.905Z,101638.19
2022-08-22T10:17:40.999Z,101632.75
2022-08-22T10:20:18.603Z,101637.47
2022-08-22T10:23:00.733Z,101634.63
2022-08-22T10:25:37.202Z,101631.19
2022-08-22T10:28:10.621Z,101631.56
2022-08-22T10:31:18.959Z,101629.78
2022-08-22T10:34:07.901Z,101628.63
2022-08-22T10:37:06.345Z,101629.41
2022-08-22T10:39:47.494Z,101622.56
2022-08-22T10:42:23.172Z,101618.16
2022-08-22T10:45:14.745Z,101613.75
2022-08-22T10:47:53.392Z,101617.38
2022-08-22T10:50:40.204Z,101608.31
2022-08-22T10:53:35.499Z,101605.06
2022-08-22T10:56:16.833Z,101604.09
2022-08-22T10:58:58.072Z,101611.19
2022-08-22T11:01:41.512Z,101608.84
2022-08-22T11:04:28.095Z,101607.09
2022-08-22T11:07:14.364Z,101616.81
2022-08-22T11:09:54.302Z,101612.81
2022-08-22T11:12:44.986Z,101610.88
2022-08-22T11:15:16.321Z,101611.09
2022-08-22T11:18:13.191Z,101615.38
2022-08-22T11:20:58.348Z,101606.97
2022-08-22T11:23:52.075Z,101607.28
2022-08-22T11:26:29.989Z,101605.50
2022-08-22T11:29:29.788Z,101604.28
2022-08-22T11:32:20.165Z,101601.19
2022-08-22T11:34:51.730Z,101596.81
2022-08-22T11:37:56.497Z,101602.75
2022-08-22T11:40:41.458Z,101596.59
2022-08-22T11:43:18.141Z,101604.31
2022-08-22T11:45:49.166Z,101595.22
2022-08-22T11:48:38.996Z,101602.19
2022-08-22T11:51:37.635Z,101602.28
2022-08-22T11:54:21.807Z,101599.84
2022-08-22T11:57:29.991Z,101606.19
2022-08-22T12:00:20.666Z,101594.94
2022-08-22T12:03:18.015Z,101586.50
2022-08-22T12:06:05.772Z,101587.72
2022-08-22T12:08:34.337Z,101588.59
2022-08-22T12:11:25.576Z,101584.44
2022-08-22T12:14:03.934Z,101594.25
2022-08-22T12:16:35.678Z,101582.50
2022-08-22T12:19:22.911Z,101590.63
2022-08-22T12:21:58.755Z,101585.84
2022-08-22T12:25:02.719Z,101583.84
2022-08-22T12:27:55.269Z,101589.25
2022-08-22T12:30:43.222Z,101579.84
2022-08-22T12:33:13.340Z,101573.78
2022-08-22T12:36:02.879Z,101582.19
2022-08-22T12:38:43.790Z,101578.06
2022-08-22T12:41:27.855Z,101587.97
2022-08-22T12:44:17.327Z,101580.50
2022-08-22T12:46:49.704Z,101582.84
2022-08-22T12:49:49.931Z,101579.78
2022-08-22T12:52:52.748Z,101582.66
2022-08-22T12:55:47.173Z,101578.81
2022-08-22T12:58:29.481Z,101571.50
2022-08-22T13:01:06.340Z,101571.34
2022-08-22T13:03:50.812Z,101569.34
2022-08-22T13:06:35.740Z,101566.56
2022-08-22T13:09:28.537Z,101556.94
2022-08-22T13:12:00.203Z,101555.28
2022-08-22T13:14:31.970Z,101558.34
2022-08-22T13:17:23.572Z,101560.25
2022-08-22T13:20:22.101Z,101556.34
2022-08-22T13:22:49.005Z,101558.84
2022-08-22T13:25:26.205Z,101558.16
2022-08-22T13:28:09.728Z,101561.28
2022-08-22T13:30:40.034Z,101556.69
2022-08-22T13:33:11.147Z,101557.13
2022-08-22T13:35:54.203Z,101555.38
2022-08-22T13:38:26.561Z,101547.56
2022-08-22T13:40:55.774Z,101547.72
2022-08-22T13:44:12.243Z,101545.56
2022-08-22T13:46:52.946Z,101548.16
2022-08-22T13:49:49.284Z,101541.72
2022-08-22T13:52:29.664Z,101544.00
2022-08-22T13:55:09.208Z,101536.94
2022-08-22T13:57:51.734Z,101540.34
2022-08-22T14:00:28.663Z,101532.78
2022-08-22T14:03:01.157Z,101535.38
2022-08-22T14:05:47.092Z,101538.50
2022-08-22T14:08:26.648Z,101534.16
2022-08-22T14:11:17.396Z,101531.88
2022-08-22T14:13:55.556Z,101525.91
2022-08-22T14:16:24.825Z,101533.81
2022-08-22T14:18:57.163Z,101531.28
2022-08-22T14:21:40.809Z,101525.38
2022-08-22T14:24:48.201Z,101525.22
2022-08-22T14:27:28.545Z,101509.91
2022-08-22T14:30:02.939Z,101512.25
2022-08-22T14:32:58.565Z,101517.97
2022-08-22T14:35:35.362Z,101502.44
2022-08-22T14:38:30.419Z,101505.22
2022-08-22T14:41:25.098Z,101503.13
2022-08-22T14:44:02.807Z,101496.19
2022-08-22T14:46:41.664Z,101496.94
2022-08-22T14:49:28.832Z,101490.56
2022-08-22T14:52:19.348Z,101494.03
2022-08-22T14:54:46.777Z,101488.22
2022-08-22T14:57:20.504Z,101493.34
2022-08-22T14:59:51.408Z,101486.22
2022-08-22T15:02:30.960Z,101488.50
2022-08-22T15:05:01.685Z,101491.47
2022-08-22T15:07:33.542Z,101488.00
2022-08-22T15:10:07.791Z,101485.13
2022-08-22T15:12:49.525Z,101481.78
2022-08-22T15:15:52.852Z,101482.56
2022-08-22T15:18:23.672Z,101482.22
2022-08-22T15:21:10.017Z,101481.34
2022-08-22T15:23:44.821Z,101474.31
2022-08-22T15:26:25.089Z,101476.91
2022-08-22T15:29:06.974Z,101474.91
2022-08-22T15:31:34.402Z,101471.25
2022-08-22T15:34:13.946Z,101470.56
2022-08-22T15:37:32.434Z,101473.78
2022-08-22T15:40:28.764Z,101464.66
2022-08-22T15:42:58.298Z,101463.84
2022-08-22T15:45:34.749Z,101471.84
2022-08-22T15:48:07.124Z,101462.38
2022-08-22T15:50:39.508Z,101454.75
2022-08-22T15:53:14.485Z,101463.50
2022-08-22T15:56:05.200Z,101466.91
2022-08-22T15:58:37.115Z,101461.31
2022-08-22T16:01:19.743Z,101466.59
2022-08-22T16:04:06.375Z,101452.53
2022-08-22T16:07:01.313Z,101454.31
2022-08-22T16:09:47.530Z,101452.31
2022-08-22T16:12:31.879Z,101452.69
2022-08-22T16:15:00.231Z,101453.03
2022-08-22T16:17:26.812Z,101447.47
2022-08-22T16:20:09.807Z,101444.69
2022-08-22T16:22:58.344Z,101430.97
2022-08-22T16:25:43.213Z,101433.22
2022-08-22T16:28:54.699Z,101428.78
2022-08-22T16:31:39.762Z,101428.00
2022-08-22T16:34:18.493Z,101426.09
2022-08-22T16:37:03.066Z,101423.50
2022-08-22T16:39:32.489Z,101433.06
2022-08-22T16:42:22.235Z,101429.47
2022-08-22T16:45:08.326Z,101424.56
2022-08-22T16:47:40.224Z,101421.78
2022-08-22T16:50:15.965Z,101420.19
2022-08-22T16:53:20.101Z,101422.78
2022-08-22T16:55:50.713Z,101418.22
2022-08-22T16:58:44.736Z,101420.38
2022-08-22T17:01:52.453Z,101406.22
2022-08-22T17:04:33.667Z,101414.97
2022-08-22T17:07:14.739Z,101421.41
2022-08-22T17:10:10.261Z,101410.91
2022-08-22T17:13:06.289Z,101414.97
2022-08-22T17:16:15.642Z,101412.28
2022-08-22T17:19:00.262Z,101413.91
2022-08-22T17:21:51.855Z,101414.59
2022-08-22T17:24:35.664Z,101405.50
2022-08-22T17:27:21.718Z,101408.72
2022-08-22T17:29:52.336Z,101407.31
2022-08-22T17:32:40.533Z,101416.03
2022-08-22T17:35:24.877Z,101409.50
2022-08-22T17:38:23.745Z,101411.13
2022-08-22T17:41:03.630Z,101403.19
2022-08-22T17:43:52.092Z,101410.94
2022-08-22T17:46:21.475Z,101417.44
2022-08-22T17:49:12.145Z,101409.59
2022-08-22T17:51:57.446Z,101414.81
2022-08-22T17:54:48.060Z,101417.66
2022-08-22T17:57:26.048Z,101421.75
2022-08-22T18:00:00.591Z,101423.56
2022-08-22T18:02:39.405Z,101421.16
2022-08-22T18:05:32.386Z,101421.16
2022-08-22T18:11:43.266Z,101428.19
2022-08-22T18:14:21.246Z,101421.53
2022-08-22T18:16:52.411Z,101424.81
2022-08-22T18:19:42.827Z,101422.16
2022-08-22T18:22:24.910Z,101423.75
2022-08-22T18:25:03.570Z,101426.31
2022-08-22T18:27:49.090Z,101429.16
2022-08-22T18:30:19.864Z,101425.84
2022-08-22T18:33:07.274Z,101426.56
2022-08-22T18:35:43.174Z,101429.69
2022-08-22T18:38:22.418Z,101439.56
2022-08-22T18:41:06.790Z,101448.53
2022-08-22T18:43:51.866Z,101449.06
2022-08-22T18:46:31.599Z,101453.75
2022-08-22T18:49:15.231Z,101453.22
2022-08-22T18:51:43.226Z,101464.75
2022-08-22T18:54:13.477Z,101473.16
2022-08-22T18:56:45.840Z,101466.09
2022-08-22T18:59:37.544Z,101471.56
2022-08-22T19:02:49.237Z,101471.09
2022-08-22T19:05:32.742Z,101475.06
2022-08-22T19:08:10.597Z,101474.25
2022-08-22T19:10:55.545Z,101470.63
2022-08-22T19:13:36.980Z,101474.69
2022-08-22T19:16:31.576Z,101483.44
2022-08-22T19:19:03.264Z,101482.22
2022-08-22T19:21:52.137Z,101484.94
2022-08-22T19:24:27.586Z,101484.31
2022-08-22T19:27:19.110Z,101488.31
2022-08-22T19:29:45.519Z,101486.00
2022-08-22T19:32:52.707Z,101494.88
2022-08-22T19:35:25.581Z,101492.97
2022-08-22T19:37:57.968Z,101494.97
2022-08-22T19:40:46.495Z,101486.72
2022-08-22T19:43:36.828Z,101488.66
2022-08-22T19:46:10.895Z,101495.84
2022-08-22T19:48:52.643Z,101492.28
2022-08-22T19:51:19.074Z,101494.28
2022-08-22T19:53:51.734Z,101499.38
2022-08-22T19:56:26.035Z,101495.47
2022-08-22T19:59:02.071Z,101493.53
2022-08-22T20:01:42.974Z,101494.31
2022-08-22T20:04:32.210Z,101488.81
2022-08-22T20:07:43.318Z,101490.75
2022-08-22T20:10:35.641Z,101481.28
2022-08-22T20:13:24.755Z,101480.53
2022-08-22T20:16:05.927Z,101480.19
2022-08-22T20:19:07.991Z,101478.22
2022-08-22T20:21:58.984Z,101489.25
2022-08-22T20:24:49.211Z,101481.81
2022-08-22T20:27:41.287Z,101478.25
2022-08-22T20:30:26.170Z,101471.16
2022-08-22T20:33:01.875Z,101479.81
2022-08-22T20:35:39.086Z,101470.38
2022-08-22T20:38:11.296Z,101477.84
2022-08-22T20:41:03.949Z,101484.16
2022-08-22T20:44:00.671Z,101474.38
2022-08-22T20:46:39.092Z,101475.53
2022-08-22T20:49:26.258Z,101470.44
2022-08-22T20:52:00.439Z,101474.41
2022-08-22T20:54:30.511Z,101484.63
2022-08-22T20:57:01.363Z,101477.16
2022-08-22T20:59:37.530Z,101479.88
2022-08-22T21:02:12.886Z,101474.75
2022-08-22T21:04:45.606Z,101464.91
2022-08-22T21:07:12.487Z,101465.72
2022-08-22T21:09:57.443Z,101466.91
2022-08-22T21:12:26.279Z,101460.22
2022-08-22T21:14:52.769Z,101477.91
2022-08-22T21:17:34.358Z,101468.09
2022-08-22T21:20:19.162Z,101470.41
2022-08-22T21:22:45.714Z,101460.97
2022-08-22T21:25:12.268Z,101460.19
2022-08-22T21:27:38.989Z,101462.16
2022-08-22T21:30:09.964Z,101464.50
2022-08-22T21:32:52.426Z,101464.53
2022-08-22T21:35:32.536Z,101466.47
2022-08-22T21:38:01.147Z,101466.09
2022-08-22T21:40:33.929Z,101461.38
2022-08-22T21:43:10.181Z,101462.16
2022-08-22T21:45:39.344Z,101465.31
2022-08-22T21:48:30.552Z,101459.06
2022-08-22T21:51:16.973Z,101454.69
2022-08-22T21:53:43.530Z,101458.66
2022-08-22T21:56:17.122Z,101459.03
2022-08-22T21:58:43.663Z,101456.28
2022-08-22T22:01:24.740Z,101462.59
2022-08-22T22:03:51.753Z,101458.25
2022-08-22T22:06:18.270Z,101455.09
2022-08-22T22:08:44.954Z,101458.22
2022-08-22T22:11:14.570Z,101460.59
2022-08-22T22:13:42.278Z,101458.25
2022-08-22T22:16:12.149Z,101457.47
2022-08-22T22:18:40.480Z,101454.31
2022-08-22T22:21:08.446Z,101458.59
2022-08-22T22:23:35.116Z,101451.19
2022-08-22T22:26:04.658Z,101452.72
2022-08-22T22:28:34.411Z,101453.09
2022-08-22T22:31:01.405Z,101452.31
2022-08-22T22:33:31.281Z,101453.88
2022-08-22T22:36:02.765Z,101453.09
2022-08-22T22:38:29.271Z,101453.84
2022-08-22T22:40:56.512Z,101452.28
2022-08-22T22:43:23.046Z,101446.47
2022-08-22T22:45:49.878Z,101455.50
2022-08-22T22:48:24.422Z,101458.66
2022-08-22T22:50:52.392Z,101463.38
2022-08-22T22:53:20.013Z,101456.69
2022-08-22T22:55:48.155Z,101460.63
2022-08-22T22:58:27.110Z,101468.09
2022-08-22T23:00:53.632Z,101471.25
2022-08-22T23:03:20.290Z,101460.63
2022-08-22T23:05:46.847Z,101462.59
2022-08-22T23:08:13.338Z,101461.81
2022-08-22T23:10:39.966Z,101461.41
2022-08-22T23:13:06.661Z,101466.94
2022-08-22T23:15:33.228Z,101464.97
2022-08-22T23:17:59.873Z,101468.88
2022-08-22T23:20:26.502Z,101464.56
2022-08-22T23:22:53.031Z,101467.31
2022-08-22T23:25:19.797Z,101465.34
2022-08-22T23:27:58.557Z,101468.88
2022-08-22T23:30:25.103Z,101461.00
2022-08-22T23:32:51.594Z,101461.81
2022-08-22T23:35:18.192Z,101468.47
2022-08-22T23:37:44.898Z,101458.25
2022-08-22T23:40:11.687Z,101454.31
2022-08-22T23:42:38.685Z,101456.28
2022-08-22T23:45:05.709Z,101449.97
2022-08-22T23:47:32.244Z,101448.75
2022-08-22T23:49:58.712Z,101437.41
2022-08-22T23:52:30.886Z,101436.63
2022-08-22T23:54:57.710Z,101436.22
2022-08-22T23:57:27.311Z,101436.22
2022-08-22T23:59:57.692Z,101436.63
